Time,TemperatureF,DewpointF,PressureIn,WindDirection,WindDirectionDegrees,WindSpeedMPH,WindSpeedGustMPH,Humidity,HourlyPrecipIn,Conditions,Clouds,dailyrainin,SoftwareType,DateUTC
2013-04-18 00:04:00,37.0,30.8,30.36,WSW,248,1.0,3.0,78,0.00,,,0.00,Weather View 32 v70,2013-04-18 04:04:00,
2013-04-18 00:09:00,37.0,30.8,30.37,SSE,158,0.0,3.0,78,0.00,,,0.00,Weather View 32 v70,2013-04-18 04:09:00,
2013-04-18 00:14:00,37.0,30.8,30.36,South,180,0.0,3.0,78,0.00,,,0.00,Weather View 32 v70,2013-04-18 04:14:00,
2013-04-18 00:20:00,37.0,30.8,30.37,SSW,202,0.0,3.0,78,0.00,,,0.00,Weather View 32 v70,2013-04-18 04:20:00,
2013-04-18 00:24:00,37.0,31.1,30.37,WNW,292,1.0,3.0,79,0.00,,,0.00,Weather View 32 v70,2013-04-18 04:24:00,
2013-04-18 00:34:00,37.0,31.7,30.37,South,180,1.0,3.0,81,0.00,,,0.00,Weather View 32 v70,2013-04-18 04:34:00,
2013-04-18 00:39:00,37.0,32.0,30.38,South,180,0.0,3.0,82,0.00,,,0.00,Weather View 32 v70,2013-04-18 04:39:00,
2013-04-18 00:44:00,36.0,31.0,30.38,SE,135,0.0,3.0,82,0.00,,,0.00,Weather View 32 v70,2013-04-18 04:44:00,
2013-04-18 00:55:00,36.0,31.3,30.38,WSW,248,0.0,3.0,83,0.00,,,0.00,Weather View 32 v70,2013-04-18 04:55:00,
2013-04-18 01:04:00,36.0,31.6,30.39,WSW,248,0.0,3.0,84,0.00,,,0.00,Weather View 32 v70,2013-04-18 05:04:00,
2013-04-18 01:15:00,36.0,32.2,30.38,SE,135,0.0,3.0,86,0.00,,,0.00,Weather View 32 v70,2013-04-18 05:15:00,
2013-04-18 01:24:00,35.0,31.5,30.38,SE,135,0.0,3.0,87,0.00,,,0.00,Weather View 32 v70,2013-04-18 05:24:00,
2013-04-18 01:35:00,35.0,32.1,30.38,SW,225,1.0,3.0,89,0.00,,,0.00,Weather View 32 v70,2013-04-18 05:35:00,
2013-04-18 01:42:00,35.0,32.1,30.38,WSW,248,0.0,3.0,89,0.00,,,0.00,Weather View 32 v70,2013-04-18 05:42:00,
2013-04-18 01:49:00,35.0,32.6,30.37,SW,225,1.0,3.0,91,0.00,,,0.00,Weather View 32 v70,2013-04-18 05:49:00,
2013-04-18 01:59:00,34.0,31.9,30.37,SE,135,0.0,3.0,92,0.00,,,0.00,Weather View 32 v70,2013-04-18 05:59:00,
2013-04-18 02:05:00,34.0,31.9,30.37,WNW,292,0.0,3.0,92,0.00,,,0.00,Weather View 32 v70,2013-04-18 06:05:00,
2013-04-18 02:14:00,34.0,31.9,30.38,WNW,292,0.0,3.0,92,0.00,,,0.00,Weather View 32 v70,2013-04-18 06:14:00,
2013-04-18 02:25:00,34.0,32.2,30.37,WSW,248,0.0,3.0,93,0.00,,,0.00,Weather View 32 v70,2013-04-18 06:25:00,
2013-04-18 02:34:00,33.0,31.2,30.38,WSW,248,1.0,3.0,93,0.00,,,0.00,Weather View 32 v70,2013-04-18 06:34:00,
2013-04-18 02:43:00,33.0,31.5,30.38,WNW,292,0.0,3.0,94,0.00,,,0.00,Weather View 32 v70,2013-04-18 06:43:00,
2013-04-18 02:49:00,33.0,31.5,30.38,SSE,158,0.0,3.0,94,0.00,,,0.00,Weather View 32 v70,2013-04-18 06:49:00,
2013-04-18 02:55:00,33.0,31.5,30.38,WSW,248,0.0,1.0,94,0.00,,,0.00,Weather View 32 v70,2013-04-18 06:55:00,
2013-04-18 03:04:00,33.0,31.7,30.38,WSW,248,0.0,1.0,95,0.00,,,0.00,Weather View 32 v70,2013-04-18 07:04:00,
2013-04-18 03:15:00,33.0,31.7,30.39,WSW,248,0.0,1.0,95,0.00,,,0.00,Weather View 32 v70,2013-04-18 07:15:00,
2013-04-18 03:24:00,33.0,31.7,30.40,West,270,0.0,1.0,95,0.00,,,0.00,Weather View 32 v70,2013-04-18 07:24:00,
2013-04-18 03:35:00,32.0,31.0,30.40,SSE,158,0.0,1.0,96,0.00,,,0.00,Weather View 32 v70,2013-04-18 07:35:00,
2013-04-18 03:43:00,32.0,31.0,30.40,WSW,248,0.0,1.0,96,0.00,,,0.00,Weather View 32 v70,2013-04-18 07:43:00,
2013-04-18 03:49:00,32.0,31.0,30.41,SSW,202,0.0,1.0,96,0.00,,,0.00,Weather View 32 v70,2013-04-18 07:49:00,
2013-04-18 03:59:00,32.0,31.0,30.41,WNW,292,0.0,1.0,96,0.00,,,0.00,Weather View 32 v70,2013-04-18 07:59:00,
2013-04-18 04:05:00,32.0,31.0,30.42,WNW,292,0.0,1.0,96,0.00,,,0.00,Weather View 32 v70,2013-04-18 08:05:00,
2013-04-18 04:14:00,32.0,31.0,30.42,West,270,0.0,0.0,96,0.00,,,0.00,Weather View 32 v70,2013-04-18 08:14:00,
2013-04-18 04:25:00,32.0,31.0,30.43,West,270,0.0,0.0,96,0.00,,,0.00,Weather View 32 v70,2013-04-18 08:25:00,
2013-04-18 04:34:00,31.0,30.0,30.44,WNW,292,0.0,0.0,96,0.00,,,0.00,Weather View 32 v70,2013-04-18 08:34:00,
2013-04-18 04:44:00,31.0,30.2,30.44,WSW,248,1.0,1.0,97,0.00,,,0.00,Weather View 32 v70,2013-04-18 08:44:00,
2013-04-18 04:49:00,31.0,30.2,30.43,WNW,292,0.0,1.0,97,0.00,,,0.00,Weather View 32 v70,2013-04-18 08:49:00,
2013-04-18 05:00:00,31.0,30.2,30.44,WNW,292,0.0,1.0,97,0.00,,,0.00,Weather View 32 v70,2013-04-18 09:00:00,
2013-04-18 05:09:00,31.0,30.5,30.44,West,270,0.0,1.0,98,0.00,,,0.00,Weather View 32 v70,2013-04-18 09:09:00,
2013-04-18 05:19:00,30.0,29.5,30.44,WNW,292,0.0,1.0,98,0.00,,,0.00,Weather View 32 v70,2013-04-18 09:19:00,
2013-04-18 05:24:00,30.0,29.8,30.43,West,270,0.0,1.0,99,0.00,,,0.00,Weather View 32 v70,2013-04-18 09:24:00,
2013-04-18 05:34:00,30.0,29.8,30.44,SE,135,0.0,1.0,99,0.00,,,0.00,Weather View 32 v70,2013-04-18 09:34:00,
2013-04-18 05:40:00,30.0,29.8,30.44,WNW,292,0.0,1.0,99,0.00,,,0.00,Weather View 32 v70,2013-04-18 09:40:00,
2013-04-18 05:49:00,30.0,29.8,30.43,WNW,292,0.0,1.0,99,0.00,,,0.00,Weather View 32 v70,2013-04-18 09:49:00,
2013-04-18 05:54:00,30.0,29.8,30.43,WNW,292,0.0,1.0,99,0.00,,,0.00,Weather View 32 v70,2013-04-18 09:54:00,
2013-04-18 06:00:00,30.0,29.5,30.43,SSE,158,0.0,1.0,98,0.00,,,0.00,Weather View 32 v70,2013-04-18 10:00:00,
2013-04-18 06:09:00,30.0,29.5,30.43,SE,135,0.0,0.0,98,0.00,,,0.00,Weather View 32 v70,2013-04-18 10:09:00,
2013-04-18 06:19:00,30.0,29.5,30.43,WNW,292,0.0,1.0,98,0.00,,,0.00,Weather View 32 v70,2013-04-18 10:19:00,
2013-04-18 06:25:00,30.0,29.5,30.44,SW,225,0.0,1.0,98,0.00,,,0.00,Weather View 32 v70,2013-04-18 10:25:00,
2013-04-18 06:34:00,30.0,29.5,30.44,SSE,158,0.0,1.0,98,0.00,,,0.00,Weather View 32 v70,2013-04-18 10:34:00,
2013-04-18 06:44:00,31.0,30.5,30.44,West,270,0.0,1.0,98,0.00,,,0.00,Weather View 32 v70,2013-04-18 10:44:00,
2013-04-18 06:49:00,31.0,30.5,30.44,West,270,0.0,1.0,98,0.00,,,0.00,Weather View 32 v70,2013-04-18 10:49:00,
2013-04-18 06:59:00,32.0,31.5,30.45,WNW,292,0.0,2.0,98,0.00,,,0.00,Weather View 32 v70,2013-04-18 10:59:00,
2013-04-18 07:05:00,32.0,31.5,30.45,WNW,292,0.0,2.0,98,0.00,,,0.00,Weather View 32 v70,2013-04-18 11:05:00,
2013-04-18 07:14:00,33.0,32.5,30.46,SSE,158,3.0,3.0,98,0.00,,,0.00,Weather View 32 v70,2013-04-18 11:14:00,
2013-04-18 07:25:00,35.0,34.0,30.46,SE,135,1.0,5.0,96,0.00,,,0.00,Weather View 32 v70,2013-04-18 11:25:00,
2013-04-18 07:34:00,37.0,34.9,30.46,SE,135,1.0,5.0,92,0.00,,,0.00,Weather View 32 v70,2013-04-18 11:34:00,
2013-04-18 07:44:00,38.0,35.0,30.46,SSE,158,3.0,5.0,89,0.00,,,0.00,Weather View 32 v70,2013-04-18 11:44:00,
2013-04-18 07:49:00,38.0,34.5,30.47,SSE,158,1.0,5.0,87,0.00,,,0.00,Weather View 32 v70,2013-04-18 11:49:00,
2013-04-18 07:59:00,39.0,34.9,30.46,SE,135,1.0,5.0,85,0.00,,,0.00,Weather View 32 v70,2013-04-18 11:59:00,
2013-04-18 08:05:00,40.0,35.6,30.46,WSW,248,1.0,5.0,84,0.00,,,0.00,Weather View 32 v70,2013-04-18 12:05:00,
2013-04-18 08:14:00,41.0,33.3,30.47,SSE,158,1.0,5.0,74,0.00,,,0.00,Weather View 32 v70,2013-04-18 12:14:00,
2013-04-18 08:25:00,42.0,30.3,30.46,SE,135,3.0,5.0,63,0.00,,,0.00,Weather View 32 v70,2013-04-18 12:25:00,
2013-04-18 08:34:00,44.0,31.0,30.47,SSE,158,1.0,5.0,60,0.00,,,0.00,Weather View 32 v70,2013-04-18 12:34:00,
2013-04-18 08:39:00,45.0,30.2,30.46,SSE,158,2.0,5.0,56,0.00,,,0.00,Weather View 32 v70,2013-04-18 12:39:00,
2013-04-18 08:46:00,44.0,28.8,30.46,SSE,158,1.0,5.0,55,0.00,,,0.00,Weather View 32 v70,2013-04-18 12:46:00,
2013-04-18 08:54:00,44.0,27.5,30.45,South,180,5.0,5.0,52,0.00,,,0.00,Weather View 32 v70,2013-04-18 12:54:00,
2013-04-18 09:00:00,45.0,28.4,30.45,South,180,4.0,5.0,52,0.00,,,0.00,Weather View 32 v70,2013-04-18 13:00:00,
2013-04-18 09:09:00,46.0,28.4,30.44,SW,225,1.0,10.0,50,0.00,,,0.00,Weather View 32 v70,2013-04-18 13:09:00,
2013-04-18 09:19:00,48.0,29.2,30.44,SE,135,1.0,10.0,48,0.00,,,0.00,Weather View 32 v70,2013-04-18 13:19:00,
2013-04-18 09:25:00,47.0,28.3,30.44,WSW,248,2.0,10.0,48,0.00,,,0.00,Weather View 32 v70,2013-04-18 13:25:00,
2013-04-18 09:34:00,47.0,29.8,30.44,SE,135,5.0,10.0,51,0.00,,,0.00,Weather View 32 v70,2013-04-18 13:34:00,
2013-04-18 09:39:00,47.0,28.3,30.45,SE,135,2.0,10.0,48,0.00,,,0.00,Weather View 32 v70,2013-04-18 13:39:00,
2013-04-18 09:45:00,48.0,30.2,30.45,SE,135,4.0,10.0,50,0.00,,,0.00,Weather View 32 v70,2013-04-18 13:45:00,
2013-04-18 09:54:00,47.0,31.2,30.44,SSE,158,6.0,11.0,54,0.00,,,0.00,Weather View 32 v70,2013-04-18 13:54:00,
2013-04-18 10:00:00,46.0,30.3,30.44,SE,135,10.0,11.0,54,0.00,,,0.00,Weather View 32 v70,2013-04-18 14:00:00,
2013-04-18 10:05:00,46.0,29.8,30.44,SSE,158,7.0,11.0,53,0.00,,,0.00,Weather View 32 v70,2013-04-18 14:05:00,
2013-04-18 10:14:00,47.0,29.3,30.43,South,180,2.0,11.0,50,0.00,,,0.00,Weather View 32 v70,2013-04-18 14:14:00,
2013-04-18 10:25:00,49.0,30.6,30.42,SE,135,3.0,11.0,49,0.00,,,0.00,Weather View 32 v70,2013-04-18 14:25:00,
2013-04-18 10:34:00,50.0,31.0,30.42,SSW,202,3.0,11.0,48,0.00,,,0.00,Weather View 32 v70,2013-04-18 14:34:00,
2013-04-18 10:39:00,51.0,32.5,30.42,SE,135,2.0,11.0,49,0.00,,,0.00,Weather View 32 v70,2013-04-18 14:39:00,
2013-04-18 10:47:00,51.0,33.0,30.41,SSE,158,2.0,11.0,50,0.00,,,0.00,Weather View 32 v70,2013-04-18 14:47:00,
2013-04-18 10:54:00,51.0,32.0,30.42,SSW,202,3.0,11.0,48,0.00,,,0.00,Weather View 32 v70,2013-04-18 14:54:00,
2013-04-18 11:04:00,51.0,30.9,30.41,SSW,202,2.0,11.0,46,0.00,,,0.00,Weather View 32 v70,2013-04-18 15:04:00,
2013-04-18 11:14:00,51.0,28.7,30.41,SW,225,1.0,9.0,42,0.00,,,0.00,Weather View 32 v70,2013-04-18 15:14:00,
2013-04-18 11:20:00,52.0,31.3,30.41,South,180,7.0,10.0,45,0.00,,,0.00,Weather View 32 v70,2013-04-18 15:20:00,
2013-04-18 11:30:00,53.0,31.6,30.41,SE,135,2.0,10.0,44,0.00,,,0.00,Weather View 32 v70,2013-04-18 15:30:00,
2013-04-18 11:39:00,53.0,32.7,30.41,South,180,3.0,10.0,46,0.00,,,0.00,Weather View 32 v70,2013-04-18 15:39:00,
2013-04-18 11:45:00,53.0,31.6,30.40,SE,135,3.0,10.0,44,0.00,,,0.00,Weather View 32 v70,2013-04-18 15:45:00,
2013-04-18 11:54:00,53.0,32.2,30.39,SE,135,3.0,15.0,45,0.00,,,0.00,Weather View 32 v70,2013-04-18 15:54:00,
2013-04-18 12:00:00,54.0,33.6,30.38,SW,225,3.0,15.0,46,0.00,,,0.00,Weather View 32 v70,2013-04-18 16:00:00,
2013-04-18 12:09:00,54.0,33.6,30.39,SSW,202,6.0,15.0,46,0.00,,,0.00,Weather View 32 v70,2013-04-18 16:09:00,
2013-04-18 12:14:00,55.0,34.6,30.39,SSW,202,3.0,15.0,46,0.00,,,0.00,Weather View 32 v70,2013-04-18 16:14:00,
2013-04-18 12:25:00,55.0,34.0,30.38,WNW,292,3.0,15.0,45,0.00,,,0.00,Weather View 32 v70,2013-04-18 16:25:00,
2013-04-18 12:34:00,54.0,33.6,30.37,SE,135,3.0,15.0,46,0.00,,,0.00,Weather View 32 v70,2013-04-18 16:34:00,
2013-04-18 12:39:00,54.0,33.6,30.36,West,270,1.0,15.0,46,0.00,,,0.00,Weather View 32 v70,2013-04-18 16:39:00,
2013-04-18 12:44:00,54.0,34.2,30.36,SE,135,3.0,15.0,47,0.00,,,0.00,Weather View 32 v70,2013-04-18 16:44:00,
2013-04-18 12:49:00,55.0,35.1,30.35,SSW,202,2.0,15.0,47,0.00,,,0.00,Weather View 32 v70,2013-04-18 16:49:00,
2013-04-18 12:59:00,55.0,34.6,30.35,South,180,2.0,12.0,46,0.00,,,0.00,Weather View 32 v70,2013-04-18 16:59:00,
2013-04-18 13:05:00,55.0,34.6,30.35,SW,225,3.0,12.0,46,0.00,,,0.00,Weather View 32 v70,2013-04-18 17:05:00,
2013-04-18 13:10:00,55.0,35.1,30.34,SE,135,5.0,12.0,47,0.00,,,0.00,Weather View 32 v70,2013-04-18 17:10:00,
2013-04-18 13:19:00,54.0,34.2,30.34,South,180,3.0,12.0,47,0.00,,,0.00,Weather View 32 v70,2013-04-18 17:19:00,
2013-04-18 13:30:00,54.0,33.6,30.34,SE,135,1.0,12.0,46,0.00,,,0.00,Weather View 32 v70,2013-04-18 17:30:00,
2013-04-18 13:39:00,54.0,35.2,30.34,SE,135,3.0,12.0,49,0.00,,,0.00,Weather View 32 v70,2013-04-18 17:39:00,
2013-04-18 13:49:00,54.0,34.7,30.34,SSE,158,3.0,12.0,48,0.00,,,0.00,Weather View 32 v70,2013-04-18 17:49:00,
2013-04-18 13:54:00,54.0,34.7,30.34,SE,135,2.0,12.0,48,0.00,,,0.00,Weather View 32 v70,2013-04-18 17:54:00,
2013-04-18 14:04:00,54.0,34.7,30.33,SE,135,1.0,12.0,48,0.00,,,0.00,Weather View 32 v70,2013-04-18 18:04:00,
2013-04-18 14:14:00,54.0,34.7,30.32,South,180,3.0,12.0,48,0.00,,,0.00,Weather View 32 v70,2013-04-18 18:14:00,
2013-04-18 14:20:00,55.0,36.2,30.32,SSW,202,3.0,12.0,49,0.00,,,0.00,Weather View 32 v70,2013-04-18 18:20:00,
2013-04-18 14:29:00,55.0,36.2,30.31,SE,135,3.0,11.0,49,0.00,,,0.00,Weather View 32 v70,2013-04-18 18:29:00,
2013-04-18 14:39:00,56.0,35.5,30.31,SSE,158,4.0,11.0,46,0.00,,,0.00,Weather View 32 v70,2013-04-18 18:39:00,
2013-04-18 14:45:00,56.0,35.5,30.31,South,180,3.0,11.0,46,0.00,,,0.00,Weather View 32 v70,2013-04-18 18:45:00,
2013-04-18 14:50:00,56.0,36.0,30.31,SE,135,3.0,11.0,47,0.00,,,0.00,Weather View 32 v70,2013-04-18 18:50:00,
2013-04-18 15:00:00,56.0,36.0,30.30,South,180,1.0,11.0,47,0.00,,,0.00,Weather View 32 v70,2013-04-18 19:00:00,
2013-04-18 15:09:00,56.0,35.5,30.30,SE,135,1.0,7.0,46,0.00,,,0.00,Weather View 32 v70,2013-04-18 19:09:00,
2013-04-18 15:14:00,56.0,36.5,30.29,SSE,158,3.0,7.0,48,0.00,,,0.00,Weather View 32 v70,2013-04-18 19:14:00,
2013-04-18 15:25:00,56.0,37.1,30.29,SE,135,3.0,9.0,49,0.00,,,0.00,Weather View 32 v70,2013-04-18 19:25:00,
2013-04-18 15:30:00,55.0,35.1,30.28,WNW,292,1.0,9.0,47,0.00,,,0.00,Weather View 32 v70,2013-04-18 19:30:00,
2013-04-18 15:39:00,55.0,36.7,30.28,SE,135,2.0,9.0,50,0.00,,,0.00,Weather View 32 v70,2013-04-18 19:39:00,
2013-04-18 15:44:00,55.0,37.2,30.28,West,270,3.0,9.0,51,0.00,,,0.00,Weather View 32 v70,2013-04-18 19:44:00,
2013-04-18 15:49:00,55.0,36.7,30.27,South,180,2.0,9.0,50,0.00,,,0.00,Weather View 32 v70,2013-04-18 19:49:00,
2013-04-18 15:54:00,55.0,37.2,30.27,WSW,248,1.0,9.0,51,0.00,,,0.00,Weather View 32 v70,2013-04-18 19:54:00,
2013-04-18 16:04:00,54.0,37.7,30.27,South,180,1.0,9.0,54,0.00,,,0.00,Weather View 32 v70,2013-04-18 20:04:00,
2013-04-18 16:10:00,55.0,38.6,30.27,SW,225,1.0,9.0,54,0.00,,,0.00,Weather View 32 v70,2013-04-18 20:10:00,
2013-04-18 16:19:00,55.0,37.2,30.27,SSW,202,1.0,9.0,51,0.00,,,0.00,Weather View 32 v70,2013-04-18 20:19:00,
2013-04-18 16:24:00,54.0,35.7,30.26,SE,135,3.0,8.0,50,0.00,,,0.00,Weather View 32 v70,2013-04-18 20:24:00,
2013-04-18 16:34:00,54.0,37.2,30.26,South,180,1.0,6.0,53,0.00,,,0.00,Weather View 32 v70,2013-04-18 20:34:00,
2013-04-18 16:40:00,53.0,36.3,30.26,SSW,202,1.0,6.0,53,0.00,,,0.00,Weather View 32 v70,2013-04-18 20:40:00,
2013-04-18 16:49:00,54.0,37.2,30.26,SW,225,1.0,6.0,53,0.00,,,0.00,Weather View 32 v70,2013-04-18 20:49:00,
2013-04-18 16:55:00,54.0,37.2,30.25,WNW,292,1.0,6.0,53,0.00,,,0.00,Weather View 32 v70,2013-04-18 20:55:00,
2013-04-18 17:04:00,53.0,36.8,30.26,SE,135,1.0,6.0,54,0.00,,,0.00,Weather View 32 v70,2013-04-18 21:04:00,
2013-04-18 17:10:00,53.0,36.8,30.26,SW,225,1.0,6.0,54,0.00,,,0.00,Weather View 32 v70,2013-04-18 21:10:00,
2013-04-18 17:19:00,53.0,37.2,30.25,SSE,158,1.0,6.0,55,0.00,,,0.00,Weather View 32 v70,2013-04-18 21:19:00,
2013-04-18 17:24:00,53.0,37.2,30.25,SE,135,2.0,6.0,55,0.00,,,0.00,Weather View 32 v70,2013-04-18 21:24:00,
2013-04-18 17:30:00,53.0,37.2,30.25,South,180,3.0,5.0,55,0.00,,,0.00,Weather View 32 v70,2013-04-18 21:30:00,
2013-04-18 17:35:00,52.0,37.2,30.25,SSE,158,3.0,9.0,57,0.00,,,0.00,Weather View 32 v70,2013-04-18 21:35:00,
2013-04-18 17:44:00,52.0,37.2,30.24,SW,225,2.0,9.0,57,0.00,,,0.00,Weather View 32 v70,2013-04-18 21:44:00,
2013-04-18 17:51:00,52.0,37.2,30.24,South,180,3.0,9.0,57,0.00,,,0.00,Weather View 32 v70,2013-04-18 21:51:00,
2013-04-18 17:59:00,51.0,38.0,30.24,SSW,202,1.0,9.0,61,0.00,,,0.00,Weather View 32 v70,2013-04-18 21:59:00,
2013-04-18 18:10:00,51.0,38.4,30.23,SSW,202,3.0,9.0,62,0.00,,,0.00,Weather View 32 v70,2013-04-18 22:10:00,
2013-04-18 18:19:00,50.0,38.3,30.23,SW,225,1.0,9.0,64,0.00,,,0.00,Weather View 32 v70,2013-04-18 22:19:00,
2013-04-18 18:29:00,50.0,38.3,30.22,South,180,1.0,9.0,64,0.00,,,0.00,Weather View 32 v70,2013-04-18 22:29:00,
2013-04-18 18:34:00,50.0,38.7,30.22,South,180,1.0,8.0,65,0.00,,,0.00,Weather View 32 v70,2013-04-18 22:34:00,
2013-04-18 18:40:00,50.0,38.3,30.22,SE,135,3.0,8.0,64,0.00,,,0.00,Weather View 32 v70,2013-04-18 22:40:00,
2013-04-18 18:49:00,49.0,37.7,30.22,SSE,158,1.0,8.0,65,0.00,,,0.00,Weather View 32 v70,2013-04-18 22:49:00,
2013-04-18 18:55:00,49.0,38.1,30.21,South,180,3.0,8.0,66,0.00,,,0.00,Weather View 32 v70,2013-04-18 22:55:00,
2013-04-18 18:59:00,49.0,38.1,30.21,SW,225,1.0,8.0,66,0.00,,,0.00,Weather View 32 v70,2013-04-18 22:59:00,
2013-04-18 19:09:00,49.0,38.9,30.21,SSW,202,4.0,7.0,68,0.00,,,0.00,Weather View 32 v70,2013-04-18 23:09:00,
2013-04-18 19:20:00,49.0,39.3,30.20,SSW,202,1.0,7.0,69,0.00,,,0.00,Weather View 32 v70,2013-04-18 23:20:00,
2013-04-18 19:24:00,48.0,38.7,30.21,South,180,1.0,7.0,70,0.00,,,0.00,Weather View 32 v70,2013-04-18 23:24:00,
2013-04-18 19:34:00,48.0,39.0,30.21,SE,135,3.0,7.0,71,0.00,,,0.00,Weather View 32 v70,2013-04-18 23:34:00,
2013-04-18 19:45:00,48.0,39.0,30.21,SSE,158,2.0,7.0,71,0.00,,,0.00,Weather View 32 v70,2013-04-18 23:45:00,
2013-04-18 19:50:00,48.0,39.4,30.20,South,180,9.0,9.0,72,0.00,,,0.00,Weather View 32 v70,2013-04-18 23:50:00,
2013-04-18 19:59:00,48.0,38.7,30.19,SE,135,3.0,12.0,70,0.00,,,0.00,Weather View 32 v70,2013-04-18 23:59:00,
2013-04-18 20:05:00,48.0,38.7,30.20,South,180,8.0,12.0,70,0.00,,,0.00,Weather View 32 v70,2013-04-19 00:05:00,
2013-04-18 20:14:00,48.0,38.7,30.20,South,180,5.0,12.0,70,0.00,,,0.00,Weather View 32 v70,2013-04-19 00:14:00,
2013-04-18 20:25:00,48.0,39.0,30.20,SSE,158,6.0,12.0,71,0.00,,,0.00,Weather View 32 v70,2013-04-19 00:25:00,
2013-04-18 20:29:00,48.0,39.4,30.20,South,180,1.0,12.0,72,0.00,,,0.00,Weather View 32 v70,2013-04-19 00:29:00,
2013-04-18 20:39:00,48.0,39.7,30.19,South,180,1.0,12.0,73,0.00,,,0.00,Weather View 32 v70,2013-04-19 00:39:00,
2013-04-18 20:50:00,47.0,39.1,30.18,South,180,2.0,12.0,74,0.00,,,0.00,Weather View 32 v70,2013-04-19 00:50:00,
2013-04-18 20:59:00,47.0,39.1,30.18,SSW,202,3.0,11.0,74,0.00,,,0.00,Weather View 32 v70,2013-04-19 00:59:00,
2013-04-18 21:04:00,47.0,38.8,30.18,South,180,1.0,11.0,73,0.00,,,0.00,Weather View 32 v70,2013-04-19 01:04:00,
2013-04-18 21:14:00,47.0,38.8,30.18,South,180,5.0,10.0,73,0.00,,,0.00,Weather View 32 v70,2013-04-19 01:14:00,
2013-04-18 21:20:00,47.0,38.8,30.18,SSW,202,6.0,9.0,73,0.00,,,0.00,Weather View 32 v70,2013-04-19 01:20:00,
2013-04-18 21:29:00,47.0,36.6,30.18,South,180,6.0,9.0,67,0.00,,,0.00,Weather View 32 v70,2013-04-19 01:29:00,
2013-04-18 21:39:00,49.0,32.1,30.18,South,180,8.0,13.0,52,0.00,,,0.00,Weather View 32 v70,2013-04-19 01:39:00,
2013-04-18 21:45:00,50.0,32.1,30.18,SSE,158,5.0,13.0,50,0.00,,,0.00,Weather View 32 v70,2013-04-19 01:45:00,
2013-04-18 21:54:00,50.0,31.6,30.18,SE,135,1.0,13.0,49,0.00,,,0.00,Weather View 32 v70,2013-04-19 01:54:00,
2013-04-18 21:59:00,50.0,34.4,30.18,SSE,158,5.0,13.0,55,0.00,,,0.00,Weather View 32 v70,2013-04-19 01:59:00,
2013-04-18 22:05:00,49.0,33.5,30.18,South,180,8.0,13.0,55,0.00,,,0.00,Weather View 32 v70,2013-04-19 02:05:00,
2013-04-18 22:09:00,50.0,32.6,30.18,South,180,4.0,13.0,51,0.00,,,0.00,Weather View 32 v70,2013-04-19 02:09:00,
2013-04-18 22:19:00,50.0,32.6,30.18,South,180,3.0,13.0,51,0.00,,,0.00,Weather View 32 v70,2013-04-19 02:19:00,
2013-04-18 22:25:00,50.0,32.1,30.17,South,180,4.0,13.0,50,0.00,,,0.00,Weather View 32 v70,2013-04-19 02:25:00,
2013-04-18 22:34:00,50.0,33.0,30.17,SSE,158,6.0,13.0,52,0.00,,,0.00,Weather View 32 v70,2013-04-19 02:34:00,
2013-04-18 22:44:00,50.0,32.1,30.17,WNW,292,3.0,11.0,50,0.00,,,0.00,Weather View 32 v70,2013-04-19 02:44:00,
2013-04-18 22:54:00,51.0,32.5,30.16,SE,135,5.0,13.0,49,0.00,,,0.00,Weather View 32 v70,2013-04-19 02:54:00,
2013-04-18 23:05:00,50.0,33.5,30.16,SE,135,3.0,13.0,53,0.00,,,0.00,Weather View 32 v70,2013-04-19 03:05:00,
2013-04-18 23:14:00,50.0,33.5,30.17,SE,135,3.0,13.0,53,0.00,,,0.00,Weather View 32 v70,2013-04-19 03:14:00,
2013-04-18 23:25:00,50.0,34.0,30.16,SSE,158,3.0,13.0,54,0.00,,,0.00,Weather View 32 v70,2013-04-19 03:25:00,
2013-04-18 23:34:00,50.0,34.4,30.16,SSE,158,2.0,13.0,55,0.00,,,0.00,Weather View 32 v70,2013-04-19 03:34:00,
2013-04-18 23:41:00,50.0,34.4,30.16,SSE,158,2.0,13.0,55,0.00,,,0.00,Weather View 32 v70,2013-04-19 03:41:00,
2013-04-18 23:49:00,50.0,35.3,30.15,South,180,8.0,12.0,57,0.00,,,0.00,Weather View 32 v70,2013-04-19 03:49:00,
2013-04-18 23:55:00,50.0,35.8,30.15,SSE,158,4.0,12.0,58,0.00,,,0.00,Weather View 32 v70,2013-04-19 03:55:00,